createdAt,value
2017-05-11T00:00:06.768Z,10.14
2017-05-11T00:02:35.773Z,9.74
2017-05-11T00:05:04.437Z,9.04
2017-05-11T00:07:33.465Z,10.10
2017-05-11T00:10:02.107Z,10.14
2017-05-11T00:12:31.037Z,10.42
2017-05-11T00:14:59.697Z,9.78
2017-05-11T00:17:28.711Z,10.36
2017-05-11T00:19:57.674Z,10.30
2017-05-11T00:22:26.682Z,10.00
2017-05-11T00:24:55.345Z,10.88
2017-05-11T00:27:23.641Z,10.18
2017-05-11T00:29:51.881Z,9.88
2017-05-11T00:32:20.893Z,11.46
2017-05-11T00:34:49.883Z,10.80
2017-05-11T00:37:18.545Z,10.78
2017-05-11T00:39:47.194Z,10.16
2017-05-11T00:42:16.141Z,11.36
2017-05-11T00:44:44.802Z,10.30
2017-05-11T00:47:13.457Z,10.70
2017-05-11T00:49:42.148Z,10.94
2017-05-11T00:52:10.780Z,9.88
2017-05-11T00:54:39.023Z,10.10
2017-05-11T00:57:07.678Z,9.70
2017-05-11T00:59:36.329Z,9.68
2017-05-11T01:02:04.969Z,11.14
2017-05-11T01:04:33.253Z,10.00
2017-05-11T01:07:02.269Z,9.88
2017-05-11T01:09:30.901Z,11.22
2017-05-11T01:11:59.584Z,11.36
2017-05-11T01:14:28.226Z,10.58
2017-05-11T01:16:56.870Z,11.42
2017-05-11T01:19:25.559Z,11.04
2017-05-11T01:21:54.198Z,11.98
2017-05-11T01:24:22.846Z,10.54
2017-05-11T01:26:51.718Z,11.10
2017-05-11T01:29:20.726Z,11.48
2017-05-11T01:31:49.371Z,11.98
2017-05-11T01:34:18.052Z,11.98
2017-05-11T01:36:46.688Z,11.42
2017-05-11T01:39:15.411Z,12.12
2017-05-11T01:41:44.350Z,11.74
2017-05-11T01:44:13.001Z,10.92
2017-05-11T01:46:41.651Z,11.84
2017-05-11T01:49:10.178Z,12.34
2017-05-11T01:51:39.194Z,11.96
2017-05-11T01:54:07.844Z,12.52
2017-05-11T01:56:36.534Z,12.38
2017-05-11T01:59:05.550Z,12.52
2017-05-11T02:01:33.797Z,13.42
2017-05-11T02:04:02.070Z,13.60
2017-05-11T02:06:30.322Z,11.50
2017-05-11T02:08:58.968Z,12.02
2017-05-11T02:11:27.638Z,11.90
2017-05-11T02:13:56.290Z,12.24
2017-05-11T02:16:24.937Z,11.90
2017-05-11T02:18:53.481Z,14.22
2017-05-11T02:21:22.131Z,12.16
2017-05-11T02:23:50.776Z,12.58
2017-05-11T02:26:19.450Z,11.74
2017-05-11T02:28:48.314Z,12.84
2017-05-11T02:31:17.331Z,11.78
2017-05-11T02:33:45.993Z,11.94
2017-05-11T02:36:14.640Z,12.50
2017-05-11T02:38:43.331Z,12.70
2017-05-11T02:41:12.175Z,13.22
2017-05-11T02:43:40.780Z,13.70
2017-05-11T02:46:09.397Z,25.14
2017-05-11T02:48:38.408Z,13.70
2017-05-11T02:51:07.022Z,13.10
2017-05-11T02:53:35.637Z,12.36
2017-05-11T02:56:04.652Z,12.82
2017-05-11T02:58:33.271Z,13.44
2017-05-11T03:01:01.890Z,12.74
2017-05-11T03:03:30.781Z,12.96
2017-05-11T03:05:59.393Z,13.56
2017-05-11T03:08:27.612Z,13.34
2017-05-11T03:10:56.271Z,14.28
2017-05-11T03:13:24.893Z,13.64
2017-05-11T03:15:53.504Z,13.90
2017-05-11T03:18:22.157Z,15.38
2017-05-11T03:20:50.773Z,13.38
2017-05-11T03:23:19.396Z,13.38
2017-05-11T03:25:48.049Z,12.22
2017-05-11T03:28:16.664Z,13.42
2017-05-11T03:30:45.287Z,14.70
2017-05-11T03:33:13.714Z,14.92
2017-05-11T03:35:42.332Z,14.10
2017-05-11T03:38:10.953Z,13.10
2017-05-11T03:40:39.597Z,12.92
2017-05-11T03:43:07.817Z,15.36
2017-05-11T03:45:36.434Z,14.98
2017-05-11T03:48:05.341Z,14.12
2017-05-11T03:50:33.961Z,14.90
2017-05-11T03:53:02.579Z,15.38
2017-05-11T03:55:31.217Z,13.90
2017-05-11T03:58:00.209Z,13.60
2017-05-11T04:00:29.193Z,15.26
2017-05-11T04:02:58.200Z,15.30
2017-05-11T04:05:26.829Z,15.66
2017-05-11T04:07:55.448Z,14.74
2017-05-11T04:10:25.279Z,14.96
2017-05-11T04:12:53.910Z,16.16
2017-05-11T04:15:22.533Z,13.80
2017-05-11T04:17:50.783Z,15.72
2017-05-11T04:20:19.393Z,14.86
2017-05-11T04:22:47.921Z,16.90
2017-05-11T04:25:16.647Z,17.20
2017-05-11T04:27:45.636Z,15.94
2017-05-11T04:30:14.627Z,15.98
2017-05-11T04:32:43.971Z,18.86
2017-05-11T04:35:12.594Z,17.46
2017-05-11T04:37:40.810Z,16.62
2017-05-11T04:40:09.750Z,14.82
2017-05-11T04:42:38.364Z,16.42
2017-05-11T04:45:06.988Z,16.80
2017-05-11T04:47:35.909Z,17.00
2017-05-11T04:50:04.521Z,17.26
2017-05-11T04:52:33.145Z,17.04
2017-05-11T04:55:01.875Z,16.32
2017-05-11T04:57:30.106Z,15.40
2017-05-11T05:02:31.545Z,15.18
2017-05-11T05:04:59.764Z,15.34
2017-05-11T05:07:28.282Z,15.66
2017-05-11T05:09:57.312Z,15.04
2017-05-11T05:12:25.492Z,13.94
2017-05-11T05:14:54.125Z,15.18
2017-05-11T05:17:22.766Z,15.60
2017-05-11T05:19:51.383Z,19.82
2017-05-11T05:22:19.606Z,15.48
2017-05-11T05:24:48.265Z,15.40
2017-05-11T05:27:16.892Z,20.68
2017-05-11T05:29:45.512Z,13.74
2017-05-11T05:32:14.376Z,13.44
2017-05-11T05:34:43.360Z,14.78
2017-05-11T05:37:11.985Z,18.60
2017-05-11T05:39:40.671Z,13.18
2017-05-11T05:42:09.292Z,12.26
2017-05-11T05:44:37.918Z,12.32
2017-05-11T05:47:06.481Z,11.24
2017-05-11T05:49:35.094Z,11.54
2017-05-11T05:52:03.708Z,11.06
2017-05-11T05:54:32.344Z,9.82
2017-05-11T05:57:00.557Z,8.84
2017-05-11T05:59:29.517Z,9.48
2017-05-11T06:01:58.468Z,10.84
2017-05-11T06:04:27.086Z,9.92
2017-05-11T06:06:55.698Z,8.36
2017-05-11T06:09:24.577Z,8.86
2017-05-11T06:11:53.188Z,8.00
2017-05-11T06:14:21.796Z,8.22
2017-05-11T06:16:50.437Z,8.24
2017-05-11T06:19:19.051Z,7.84
2017-05-11T06:21:47.655Z,7.90
2017-05-11T06:24:16.676Z,7.28
2017-05-11T06:26:44.900Z,7.72
2017-05-11T06:29:13.127Z,7.20
2017-05-11T06:31:41.377Z,6.48
2017-05-11T06:34:10.375Z,7.08
2017-05-11T06:36:39.027Z,6.70
2017-05-11T06:39:07.629Z,7.18
2017-05-11T06:41:37.242Z,8.86
2017-05-11T06:44:05.874Z,7.02
2017-05-11T06:46:34.531Z,6.80
2017-05-11T06:49:03.148Z,6.38
2017-05-11T06:51:31.762Z,5.58
2017-05-11T06:54:00.863Z,5.48
2017-05-11T06:56:29.864Z,6.50
2017-05-11T06:58:58.480Z,5.28
2017-05-11T07:01:26.726Z,6.44
2017-05-11T07:03:55.341Z,5.84
2017-05-11T07:06:23.957Z,5.02
2017-05-11T07:08:52.212Z,5.44
2017-05-11T07:11:20.820Z,4.92
2017-05-11T07:13:49.808Z,4.96
2017-05-11T07:16:19.107Z,6.86
2017-05-11T07:18:47.701Z,7.42
2017-05-11T07:21:16.321Z,6.54
2017-05-11T07:23:44.989Z,6.08
2017-05-11T07:26:13.205Z,7.50
2017-05-11T07:28:41.820Z,7.38
2017-05-11T07:31:10.961Z,7.96
2017-05-11T07:33:39.576Z,8.38
2017-05-11T07:36:07.816Z,7.16
2017-05-11T07:38:36.706Z,6.12
2017-05-11T07:41:05.309Z,6.34
2017-05-11T07:43:33.938Z,7.20
2017-05-11T07:46:02.581Z,6.26
2017-05-11T07:48:31.200Z,6.34
2017-05-11T07:51:00.133Z,6.56
2017-05-11T07:53:28.957Z,6.12
2017-05-11T07:55:57.186Z,6.06
2017-05-11T07:58:25.817Z,6.98
2017-05-11T08:00:54.463Z,7.14
2017-05-11T08:03:23.086Z,5.76
2017-05-11T08:05:52.080Z,6.32
2017-05-11T08:08:20.944Z,6.02
2017-05-11T08:10:49.560Z,5.62
2017-05-11T08:13:18.188Z,5.14
2017-05-11T08:15:47.093Z,6.16
2017-05-11T08:18:15.711Z,5.54
2017-05-11T08:20:44.617Z,6.10
2017-05-11T08:23:13.571Z,5.76
2017-05-11T08:25:42.552Z,5.88
2017-05-11T08:28:11.169Z,5.16
2017-05-11T08:30:39.423Z,6.14
2017-05-11T08:33:08.410Z,5.42
2017-05-11T08:35:37.389Z,4.84
2017-05-11T08:38:06.022Z,6.16
2017-05-11T08:40:34.651Z,5.70
2017-05-11T08:43:03.272Z,5.50
2017-05-11T08:45:31.925Z,5.48
2017-05-11T08:48:00.554Z,5.50
2017-05-11T08:50:29.174Z,6.00
2017-05-11T08:52:57.970Z,5.70
2017-05-11T08:55:26.616Z,6.26
2017-05-11T08:57:54.825Z,5.96
2017-05-11T09:00:23.074Z,5.60
2017-05-11T09:02:52.198Z,5.14
2017-05-11T09:05:20.809Z,5.12
2017-05-11T09:07:49.583Z,5.98
2017-05-11T09:10:18.556Z,5.92
2017-05-11T09:12:47.183Z,5.46
2017-05-11T09:15:15.843Z,5.76
2017-05-11T09:17:45.138Z,5.14
2017-05-11T09:20:14.131Z,5.58
2017-05-11T09:22:42.965Z,5.58
2017-05-11T09:25:11.571Z,6.22
2017-05-11T09:27:39.800Z,5.44
2017-05-11T09:30:08.657Z,4.74
2017-05-11T09:32:37.647Z,5.10
2017-05-11T09:35:06.643Z,5.10
2017-05-11T09:37:35.737Z,5.50
2017-05-11T09:40:03.964Z,5.28
2017-05-11T09:42:32.574Z,4.96
2017-05-11T09:45:01.200Z,5.12
2017-05-11T09:47:29.426Z,4.74
2017-05-11T09:49:58.051Z,6.60
2017-05-11T09:52:26.673Z,5.90
2017-05-11T09:54:55.286Z,5.98
2017-05-11T09:57:24.277Z,6.90
2017-05-11T09:59:53.318Z,6.50
2017-05-11T10:02:21.927Z,5.40
2017-05-11T10:04:50.541Z,6.56
2017-05-11T10:07:19.199Z,5.96
2017-05-11T10:09:47.809Z,5.60
2017-05-11T10:12:16.789Z,6.66
2017-05-11T10:14:45.788Z,6.06
2017-05-11T10:17:14.396Z,5.22
2017-05-11T10:19:43.672Z,5.62
2017-05-11T10:22:12.468Z,5.14
2017-05-11T10:24:47.863Z,5.90
2017-05-11T10:36:10.156Z,5.20
2017-05-11T10:38:38.794Z,5.14
2017-05-11T10:41:07.430Z,5.78
2017-05-11T10:43:36.103Z,5.76
2017-05-11T10:46:04.734Z,5.96
2017-05-11T10:48:33.373Z,4.88
2017-05-11T10:51:02.602Z,4.44
2017-05-11T10:53:31.620Z,4.02
2017-05-11T10:56:00.252Z,4.70
2017-05-11T10:58:28.932Z,4.78
2017-05-11T11:00:57.584Z,5.10
2017-05-11T11:03:26.220Z,5.08
2017-05-11T11:05:55.275Z,3.98
2017-05-11T11:08:23.920Z,4.50
2017-05-11T11:10:52.571Z,4.90
2017-05-11T11:13:21.190Z,4.84
2017-05-11T11:15:49.833Z,5.80
2017-05-11T11:18:18.477Z,4.20
2017-05-11T11:20:47.010Z,4.42
2017-05-11T11:23:16.041Z,4.62
2017-05-11T11:25:44.673Z,4.58
2017-05-11T11:28:13.936Z,4.48
2017-05-11T11:30:42.573Z,4.20
2017-05-11T11:33:11.577Z,4.48
2017-05-11T11:35:40.328Z,4.08
2017-05-11T11:38:08.966Z,4.06
2017-05-11T11:40:37.220Z,3.62
2017-05-11T11:43:06.098Z,3.42
2017-05-11T11:45:34.735Z,3.70
2017-05-11T11:48:03.375Z,3.80
2017-05-11T11:50:33.057Z,3.50
2017-05-11T11:53:02.061Z,4.18
2017-05-11T11:55:30.706Z,3.80
2017-05-11T11:58:00.133Z,3.86
2017-05-11T12:00:28.776Z,3.70
2017-05-11T12:02:57.417Z,3.34
2017-05-11T12:05:26.080Z,3.84
2017-05-11T12:07:54.321Z,3.90
2017-05-11T12:10:22.954Z,3.98
2017-05-11T12:12:51.628Z,3.58
2017-05-11T12:15:20.648Z,3.80
2017-05-11T12:17:49.298Z,3.60
2017-05-11T12:20:17.960Z,4.88
2017-05-11T12:22:46.595Z,4.04
2017-05-11T12:25:14.833Z,3.38
2017-05-11T12:27:43.913Z,3.60
2017-05-11T12:30:12.566Z,3.90
2017-05-11T12:32:41.204Z,3.32
2017-05-11T12:35:09.494Z,3.16
2017-05-11T12:37:38.126Z,3.32
2017-05-11T12:40:06.781Z,3.04
2017-05-11T12:42:35.534Z,3.20
2017-05-11T12:45:03.773Z,3.00
2017-05-11T12:47:32.410Z,3.30
2017-05-11T12:50:01.078Z,2.92
2017-05-11T12:52:29.321Z,3.00
2017-05-11T12:54:57.976Z,3.02
2017-05-11T12:57:27.017Z,3.10
2017-05-11T12:59:55.262Z,3.48
2017-05-11T13:02:23.902Z,3.64
2017-05-11T13:04:52.784Z,4.02
2017-05-11T13:07:21.435Z,4.02
2017-05-11T13:09:50.449Z,3.76
2017-05-11T13:12:19.127Z,4.18
2017-05-11T13:14:47.384Z,4.14
2017-05-11T13:17:15.618Z,4.02
2017-05-11T13:19:44.285Z,4.70
2017-05-11T13:22:12.937Z,4.82
2017-05-11T13:24:41.943Z,5.50
2017-05-11T13:27:10.832Z,4.58
2017-05-11T13:29:39.473Z,4.74
2017-05-11T13:32:08.119Z,4.92
2017-05-11T13:34:36.789Z,4.26
2017-05-11T13:37:05.431Z,4.10
2017-05-11T13:39:34.070Z,4.00
2017-05-11T13:42:02.739Z,4.34
2017-05-11T13:44:30.974Z,4.70
2017-05-11T13:46:59.619Z,5.38
2017-05-11T13:49:28.459Z,5.60
2017-05-11T13:51:57.483Z,5.66
2017-05-11T13:54:25.717Z,5.34
2017-05-11T13:56:54.761Z,5.60
2017-05-11T13:59:23.485Z,5.72
2017-05-11T14:01:52.111Z,5.10
2017-05-11T14:04:20.783Z,4.74
2017-05-11T14:06:49.433Z,5.20
2017-05-11T14:09:18.078Z,5.76
2017-05-11T14:11:47.494Z,5.44
2017-05-11T14:14:16.130Z,5.10
2017-05-11T14:16:44.382Z,6.18
2017-05-11T14:19:13.437Z,6.10
2017-05-11T14:21:42.088Z,5.22
2017-05-11T14:24:10.330Z,6.06
2017-05-11T14:26:39.384Z,6.38
2017-05-11T14:29:08.020Z,6.48
2017-05-11T14:31:36.269Z,6.36
2017-05-11T14:34:05.017Z,5.42
2017-05-11T14:36:33.676Z,6.74
2017-05-11T14:39:02.329Z,6.18
2017-05-11T14:41:31.344Z,6.48
2017-05-11T14:43:59.998Z,6.04
2017-05-11T14:46:28.640Z,6.18
2017-05-11T14:48:57.329Z,6.40
2017-05-11T14:51:25.972Z,6.78
2017-05-11T14:53:54.620Z,6.90
2017-05-11T14:56:23.246Z,6.50
2017-05-11T14:58:51.895Z,5.70
2017-05-11T15:01:20.539Z,6.18
2017-05-11T15:03:49.217Z,6.96
2017-05-11T15:06:17.872Z,6.56
2017-05-11T15:08:47.653Z,6.90
2017-05-11T15:11:16.312Z,7.10
2017-05-11T15:13:45.199Z,6.22
2017-05-11T15:16:13.857Z,6.36
2017-05-11T15:18:42.832Z,7.28
2017-05-11T15:21:11.483Z,6.70
2017-05-11T15:23:39.730Z,6.18
2017-05-11T15:26:09.773Z,8.28
2017-05-11T15:28:38.352Z,7.22
2017-05-11T15:31:07.542Z,8.02
2017-05-11T15:33:36.209Z,6.92
2017-05-11T15:36:04.868Z,6.78
2017-05-11T15:38:33.523Z,6.98
2017-05-11T15:41:01.792Z,6.28
2017-05-11T15:43:31.937Z,6.76
2017-05-11T15:46:00.185Z,7.30
2017-05-11T15:48:29.607Z,7.38
2017-05-11T15:50:58.261Z,6.86
2017-05-11T15:53:27.285Z,6.52
2017-05-11T15:55:55.982Z,7.80
2017-05-11T15:58:24.624Z,6.56
2017-05-11T16:00:53.643Z,6.20
2017-05-11T16:03:22.115Z,7.12
2017-05-11T16:05:50.759Z,6.38
2017-05-11T16:08:19.015Z,7.00
2017-05-11T16:10:47.689Z,6.02
2017-05-11T16:13:15.946Z,6.42
2017-05-11T16:15:44.200Z,7.20
2017-05-11T16:18:12.877Z,6.34
2017-05-11T16:20:41.526Z,6.18
2017-05-11T16:23:10.175Z,6.98
2017-05-11T16:25:39.260Z,6.52
2017-05-11T16:28:07.915Z,5.94
2017-05-11T16:30:36.937Z,5.96
2017-05-11T16:33:05.628Z,6.30
2017-05-11T16:35:34.278Z,6.22
2017-05-11T16:38:03.299Z,6.26
2017-05-11T16:40:32.672Z,6.34
2017-05-11T16:43:01.325Z,6.42
2017-05-11T16:45:29.974Z,5.74
2017-05-11T16:47:58.252Z,6.66
2017-05-11T16:50:26.900Z,6.04
2017-05-11T16:52:55.153Z,6.66
2017-05-11T16:55:24.713Z,7.66
2017-05-11T16:57:53.368Z,6.60
2017-05-11T17:00:22.033Z,8.48
2017-05-11T17:02:50.632Z,7.26
2017-05-11T17:05:19.273Z,7.52
2017-05-11T17:07:47.936Z,7.56
2017-05-11T17:10:16.785Z,7.30
2017-05-11T17:12:45.716Z,7.18
2017-05-11T17:15:14.361Z,6.38
2017-05-11T17:17:43.741Z,6.22
2017-05-11T17:20:12.755Z,6.92
2017-05-11T17:22:41.411Z,6.80
2017-05-11T17:25:10.535Z,7.06
2017-05-11T17:27:39.190Z,6.40
2017-05-11T17:30:08.209Z,6.60
2017-05-11T17:32:36.905Z,7.02
2017-05-11T17:35:05.147Z,8.44
2017-05-11T17:37:33.807Z,6.50
2017-05-11T17:40:02.484Z,6.22
2017-05-11T17:42:31.358Z,6.68
2017-05-11T17:44:59.989Z,5.70
2017-05-11T17:47:29.835Z,6.08
2017-05-11T17:49:58.092Z,6.82
2017-05-11T17:52:26.890Z,6.08
2017-05-11T17:54:55.832Z,6.02
2017-05-11T17:57:25.845Z,5.74
2017-05-11T17:59:54.497Z,7.12
2017-05-11T18:02:25.377Z,6.08
2017-05-11T18:04:54.402Z,8.54
2017-05-11T18:07:23.089Z,7.26
2017-05-11T18:09:51.344Z,7.50
2017-05-11T18:12:19.986Z,8.32
2017-05-11T18:14:49.337Z,5.80
2017-05-11T18:17:17.976Z,6.00
2017-05-11T18:19:47.001Z,6.30
2017-05-11T18:22:15.314Z,5.72
2017-05-11T18:24:43.967Z,5.60
2017-05-11T18:27:12.624Z,6.58
2017-05-11T18:29:42.617Z,6.08
2017-05-11T18:32:11.261Z,5.96
2017-05-11T18:34:39.528Z,5.80
2017-05-11T18:37:08.395Z,5.72
2017-05-11T18:39:37.062Z,6.02
2017-05-11T18:42:06.699Z,6.42
2017-05-11T18:44:35.374Z,5.54
2017-05-11T18:47:03.630Z,4.92
2017-05-11T18:49:32.292Z,5.84
2017-05-11T18:52:00.982Z,5.18
2017-05-11T18:54:29.941Z,5.54
2017-05-11T18:56:59.707Z,5.60
2017-05-11T18:59:28.264Z,5.62
2017-05-11T19:01:56.925Z,5.88
2017-05-11T19:04:26.486Z,5.68
2017-05-11T19:06:55.632Z,6.50
2017-05-11T19:09:24.278Z,6.00
2017-05-11T19:11:52.942Z,6.40
2017-05-11T19:14:22.298Z,5.60
2017-05-11T19:16:50.547Z,5.90
2017-05-11T19:19:19.807Z,5.56
2017-05-11T19:21:49.722Z,5.90
2017-05-11T19:24:18.425Z,5.96
2017-05-11T19:26:46.976Z,5.64
2017-05-11T19:29:16.134Z,5.74
2017-05-11T19:31:45.681Z,5.92
2017-05-11T19:34:15.215Z,5.76
2017-05-11T19:36:43.991Z,5.30
2017-05-11T19:39:12.652Z,6.08
2017-05-11T19:41:40.901Z,5.48
2017-05-11T19:44:09.603Z,6.06
2017-05-11T19:46:38.636Z,6.20
2017-05-11T19:49:08.619Z,6.60
2017-05-11T19:51:37.656Z,5.66
2017-05-11T19:54:06.304Z,5.78
2017-05-11T19:56:34.975Z,6.24
2017-05-11T19:59:03.255Z,6.16
2017-05-11T20:01:31.919Z,6.56
2017-05-11T20:04:00.945Z,6.44
2017-05-11T20:06:29.636Z,7.16
2017-05-11T20:08:58.293Z,5.68
2017-05-11T20:11:27.317Z,6.04
2017-05-11T20:13:56.161Z,5.56
2017-05-11T20:16:25.514Z,5.76
2017-05-11T20:18:54.162Z,6.26
2017-05-11T20:21:22.704Z,6.44
2017-05-11T20:23:51.573Z,5.66
2017-05-11T20:26:21.256Z,6.54
2017-05-11T20:28:49.936Z,6.12
2017-05-11T20:31:18.593Z,6.14
2017-05-11T20:33:46.850Z,6.95
2017-05-11T20:36:15.777Z,6.16
2017-05-11T20:38:44.433Z,6.46
2017-05-11T20:41:12.692Z,6.56
2017-05-11T20:43:41.381Z,6.00
2017-05-11T20:46:10.042Z,6.52
2017-05-11T20:48:39.184Z,8.06
2017-05-11T20:51:08.422Z,7.30
2017-05-11T20:53:37.076Z,6.54
2017-05-11T20:56:05.743Z,7.02
2017-05-11T20:58:34.746Z,7.78
2017-05-11T21:01:03.384Z,6.62
2017-05-11T21:03:32.139Z,7.16
2017-05-11T21:06:00.777Z,7.28
2017-05-11T21:08:29.792Z,7.32
2017-05-11T21:10:58.477Z,7.94
2017-05-11T21:13:27.734Z,7.54
2017-05-11T21:15:56.370Z,12.70
2017-05-11T21:18:25.152Z,7.56
2017-05-11T21:20:53.811Z,13.05
2017-05-11T21:23:22.479Z,7.60
2017-05-11T21:25:51.226Z,7.68
2017-05-11T21:28:19.903Z,8.00
2017-05-11T21:30:48.541Z,7.52
2017-05-11T21:33:16.826Z,8.22
2017-05-11T21:35:45.463Z,8.28
2017-05-11T21:38:14.101Z,8.40
2017-05-11T21:40:42.374Z,8.32
2017-05-11T21:43:10.902Z,8.52
2017-05-11T21:45:39.533Z,17.74
2017-05-11T21:48:08.195Z,9.22
2017-05-11T21:50:37.210Z,9.54
2017-05-11T21:53:05.863Z,9.30
2017-05-11T21:55:35.177Z,9.34
2017-05-11T21:58:04.186Z,10.20
2017-05-11T22:00:32.842Z,9.44
2017-05-11T22:03:01.734Z,9.20
2017-05-11T22:05:30.753Z,9.30
2017-05-11T22:07:59.394Z,9.34
2017-05-11T22:10:28.069Z,9.60
2017-05-11T22:12:56.329Z,9.32
2017-05-11T22:15:24.988Z,9.50
2017-05-11T22:17:53.659Z,9.12
2017-05-11T22:20:22.319Z,9.22
2017-05-11T22:22:51.342Z,10.02
2017-05-11T22:25:19.607Z,9.70
2017-05-11T22:27:47.864Z,9.62
2017-05-11T22:30:16.873Z,9.06
2017-05-11T22:32:45.552Z,10.00
2017-05-11T22:35:13.812Z,9.70
2017-05-11T22:37:42.059Z,9.92
2017-05-11T22:40:10.890Z,10.10
2017-05-11T22:42:39.885Z,9.66
2017-05-11T22:45:08.526Z,10.28
2017-05-11T22:47:37.854Z,9.44
2017-05-11T22:50:06.501Z,10.00
2017-05-11T22:52:35.137Z,9.86
2017-05-11T22:55:03.437Z,9.40
2017-05-11T22:57:32.073Z,9.82
2017-05-11T23:00:00.714Z,10.00
2017-05-11T23:02:29.101Z,9.38
2017-05-11T23:04:57.348Z,9.24
2017-05-11T23:07:25.990Z,9.20
2017-05-11T23:09:54.747Z,8.94
2017-05-11T23:12:23.387Z,9.74
2017-05-11T23:14:52.054Z,10.30
2017-05-11T23:17:20.719Z,9.04
2017-05-11T23:19:48.984Z,9.60
2017-05-11T23:22:17.995Z,9.22
2017-05-11T23:24:46.754Z,9.76
2017-05-11T23:27:15.762Z,8.44
2017-05-11T23:29:44.786Z,9.74
2017-05-11T23:32:13.642Z,9.28
2017-05-11T23:34:42.285Z,9.30
2017-05-11T23:37:10.916Z,8.82
2017-05-11T23:39:39.597Z,9.14
2017-05-11T23:42:08.233Z,8.34
2017-05-11T23:44:36.877Z,9.38
2017-05-11T23:47:05.546Z,9.64
2017-05-11T23:49:34.208Z,9.26
2017-05-11T23:52:03.216Z,9.80
2017-05-11T23:54:32.507Z,9.08
2017-05-11T23:57:01.519Z,9.12
2017-05-11T23:59:30.161Z,9.10
